createdAt,value
2022-09-03T00:00:55.584Z,19.34
2022-09-03T00:01:55.649Z,19.34
2022-09-03T00:02:55.572Z,19.43
2022-09-03T00:03:55.489Z,19.47
2022-09-03T00:04:55.434Z,19.43
2022-09-03T00:05:55.397Z,19.39
2022-09-03T00:06:55.359Z,19.35
2022-09-03T00:07:55.330Z,19.60
2022-09-03T00:08:55.298Z,19.67
2022-09-03T00:09:55.247Z,19.67
2022-09-03T00:10:55.210Z,19.61
2022-09-03T00:11:55.172Z,19.62
2022-09-03T00:12:55.136Z,19.65
2022-09-03T00:13:55.105Z,19.49
2022-09-03T00:14:55.071Z,19.49
2022-09-03T00:15:55.093Z,19.55
2022-09-03T00:16:54.988Z,19.40
2022-09-03T00:17:54.943Z,19.40
2022-09-03T00:18:54.910Z,19.47
2022-09-03T00:19:54.873Z,19.42
2022-09-03T00:20:54.847Z,19.40
2022-09-03T00:21:54.798Z,19.43
2022-09-03T00:22:54.762Z,19.38
2022-09-03T00:23:54.723Z,19.49
2022-09-03T00:24:54.687Z,19.49
2022-09-03T00:25:54.659Z,19.43
2022-09-03T00:26:54.612Z,19.43
2022-09-03T00:27:54.574Z,19.43
2022-09-03T00:28:54.537Z,19.47
2022-09-03T00:29:54.500Z,19.43
2022-09-03T00:30:54.522Z,19.39
2022-09-03T00:31:54.429Z,19.39
2022-09-03T00:32:54.393Z,19.34
2022-09-03T00:33:54.355Z,19.35
2022-09-03T00:34:54.311Z,19.39
2022-09-03T00:35:54.285Z,19.28
2022-09-03T00:36:54.234Z,19.27
2022-09-03T00:37:54.202Z,19.30
2022-09-03T00:38:54.179Z,19.31
2022-09-03T00:39:54.179Z,19.31
2022-09-03T00:40:54.089Z,19.30
2022-09-03T00:41:54.052Z,19.34
2022-09-03T00:42:54.010Z,19.20
2022-09-03T00:43:53.973Z,19.21
2022-09-03T00:44:53.951Z,19.23
2022-09-03T00:45:53.997Z,19.21
2022-09-03T00:46:53.861Z,19.39
2022-09-03T00:47:53.827Z,19.35
2022-09-03T00:48:53.801Z,19.40
2022-09-03T00:49:53.751Z,19.40
2022-09-03T00:50:53.714Z,19.43
2022-09-03T00:51:53.676Z,19.39
2022-09-03T00:52:53.643Z,19.39
2022-09-03T00:53:53.609Z,19.38
2022-09-03T00:54:53.571Z,19.30
2022-09-03T00:55:53.526Z,19.30
2022-09-03T00:56:53.493Z,19.23
2022-09-03T00:57:53.457Z,19.25
2022-09-03T00:58:53.414Z,19.30
2022-09-03T00:59:53.390Z,19.27
2022-09-03T01:00:53.341Z,19.30
2022-09-03T01:01:53.376Z,19.24
2022-09-03T01:02:53.295Z,19.32
2022-09-03T01:03:53.229Z,19.17
2022-09-03T01:04:53.193Z,19.17
2022-09-03T01:05:53.161Z,19.16
2022-09-03T01:06:53.113Z,19.20
2022-09-03T01:07:53.080Z,19.20
2022-09-03T01:08:53.041Z,19.15
2022-09-03T01:09:53.002Z,19.17
2022-09-03T01:10:52.977Z,19.23
2022-09-03T01:11:52.935Z,19.13
2022-09-03T01:12:52.895Z,19.15
2022-09-03T01:13:52.858Z,19.09
2022-09-03T01:14:52.816Z,19.07
2022-09-03T01:15:52.843Z,19.20
2022-09-03T01:16:52.749Z,19.07
2022-09-03T01:17:52.714Z,19.07
2022-09-03T01:18:52.663Z,19.06
2022-09-03T01:19:52.635Z,18.99
2022-09-03T01:20:52.591Z,19.02
2022-09-03T01:21:52.554Z,19.02
2022-09-03T01:22:52.515Z,19.09
2022-09-03T01:23:52.492Z,19.10
2022-09-03T01:24:52.439Z,19.10
2022-09-03T01:25:52.405Z,19.01
2022-09-03T01:26:52.376Z,19.05
2022-09-03T01:27:52.331Z,19.05
2022-09-03T01:28:52.290Z,19.12
2022-09-03T01:29:52.270Z,19.07
2022-09-03T01:30:52.235Z,19.07
2022-09-03T01:31:52.181Z,19.13
2022-09-03T01:32:52.140Z,19.13
2022-09-03T01:33:52.105Z,19.10
2022-09-03T01:34:52.077Z,19.02
2022-09-03T01:35:52.029Z,19.13
2022-09-03T01:36:51.991Z,19.17
2022-09-03T01:37:51.956Z,19.25
2022-09-03T01:38:51.914Z,19.21
2022-09-03T01:39:51.938Z,19.20
2022-09-03T01:40:51.841Z,19.16
2022-09-03T01:41:51.809Z,19.05
2022-09-03T01:43:02.151Z,19.07
2022-09-03T01:43:51.729Z,19.09
2022-09-03T01:44:52.987Z,19.02
2022-09-03T01:45:52.389Z,19.09
2022-09-03T01:46:51.666Z,18.90
2022-09-03T01:47:51.590Z,19.01
2022-09-03T01:48:51.539Z,18.94
2022-09-03T01:49:51.503Z,19.01
2022-09-03T01:50:51.466Z,18.87
2022-09-03T01:51:51.429Z,18.86
2022-09-03T01:52:51.390Z,18.90
2022-09-03T01:53:51.366Z,18.91
2022-09-03T01:54:51.319Z,18.82
2022-09-03T01:55:51.278Z,18.82
2022-09-03T01:56:51.237Z,18.89
2022-09-03T01:57:51.202Z,18.94
2022-09-03T01:58:51.163Z,18.91
2022-09-03T01:59:51.137Z,18.89
2022-09-03T02:00:51.091Z,18.87
2022-09-03T02:01:51.099Z,18.86
2022-09-03T02:02:51.151Z,18.79
2022-09-03T02:03:50.984Z,18.78
2022-09-03T02:04:50.944Z,18.68
2022-09-03T02:05:50.915Z,18.65
2022-09-03T02:06:50.863Z,18.69
2022-09-03T02:07:50.828Z,18.72
2022-09-03T02:08:50.789Z,18.86
2022-09-03T02:09:50.762Z,18.82
2022-09-03T02:10:50.713Z,18.86
2022-09-03T02:11:50.677Z,18.82
2022-09-03T02:12:50.679Z,18.82
2022-09-03T02:13:50.602Z,18.74
2022-09-03T02:14:50.561Z,18.74
2022-09-03T02:15:50.622Z,18.78
2022-09-03T02:16:50.486Z,18.79
2022-09-03T02:17:50.555Z,18.75
2022-09-03T02:18:50.414Z,18.69
2022-09-03T02:19:50.374Z,18.74
2022-09-03T02:20:50.341Z,18.71
2022-09-03T02:21:50.302Z,18.62
2022-09-03T02:22:50.260Z,18.66
2022-09-03T02:23:50.233Z,18.51
2022-09-03T02:24:50.187Z,18.51
2022-09-03T02:25:50.149Z,18.39
2022-09-03T02:26:50.113Z,18.46
2022-09-03T02:27:50.075Z,18.42
2022-09-03T02:28:50.050Z,18.51
2022-09-03T02:29:49.997Z,18.60
2022-09-03T02:30:50.015Z,18.62
2022-09-03T02:31:49.922Z,18.56
2022-09-03T02:32:49.883Z,18.59
2022-09-03T02:33:49.847Z,18.71
2022-09-03T02:34:49.823Z,18.65
2022-09-03T02:35:49.774Z,18.65
2022-09-03T02:36:49.735Z,18.66
2022-09-03T02:37:49.698Z,18.66
2022-09-03T02:38:49.657Z,18.51
2022-09-03T02:39:49.666Z,18.62
2022-09-03T02:40:49.595Z,18.47
2022-09-03T02:41:49.548Z,18.71
2022-09-03T02:42:49.510Z,18.82
2022-09-03T02:43:49.472Z,18.71
2022-09-03T02:44:49.430Z,18.57
2022-09-03T02:45:49.417Z,18.59
2022-09-03T02:46:49.382Z,18.62
2022-09-03T02:47:49.319Z,18.53
2022-09-03T02:48:49.280Z,18.47
2022-09-03T02:49:49.244Z,18.54
2022-09-03T02:50:49.221Z,18.41
2022-09-03T02:51:49.174Z,18.50
2022-09-03T02:52:49.139Z,18.47
2022-09-03T02:53:49.095Z,18.34
2022-09-03T02:54:49.053Z,18.34
2022-09-03T02:55:49.017Z,18.32
2022-09-03T02:56:48.981Z,18.31
2022-09-03T02:57:48.953Z,18.20
2022-09-03T02:58:48.902Z,18.26
2022-09-03T02:59:48.868Z,18.21
2022-09-03T03:00:48.831Z,18.21
2022-09-03T03:01:48.803Z,18.21
2022-09-03T03:02:48.777Z,18.20
2022-09-03T03:03:48.728Z,18.20
2022-09-03T03:04:48.677Z,18.35
2022-09-03T03:05:48.639Z,18.26
2022-09-03T03:06:48.602Z,18.32
2022-09-03T03:07:48.564Z,18.38
2022-09-03T03:08:48.529Z,18.20
2022-09-03T03:09:48.503Z,18.23
2022-09-03T03:10:48.450Z,18.21
2022-09-03T03:11:48.413Z,18.21
2022-09-03T03:12:48.374Z,18.17
2022-09-03T03:13:48.338Z,18.09
2022-09-03T03:14:48.300Z,18.09
2022-09-03T03:15:48.279Z,18.07
2022-09-03T03:16:48.420Z,18.01
2022-09-03T03:17:48.187Z,18.04
2022-09-03T03:18:48.147Z,17.95
2022-09-03T03:19:48.110Z,17.94
2022-09-03T03:20:48.073Z,17.89
2022-09-03T03:21:48.047Z,17.99
2022-09-03T03:22:47.998Z,17.87
2022-09-03T03:23:47.960Z,17.91
2022-09-03T03:24:47.923Z,17.84
2022-09-03T03:25:47.886Z,17.91
2022-09-03T03:26:47.846Z,17.77
2022-09-03T03:27:47.822Z,17.84
2022-09-03T03:28:47.770Z,17.89
2022-09-03T03:29:47.746Z,17.84
2022-09-03T03:32:19.746Z,17.99
2022-09-03T03:33:19.707Z,17.84
2022-09-03T03:34:19.663Z,17.89
2022-09-03T03:35:19.638Z,17.84
2022-09-03T03:36:19.582Z,17.96
2022-09-03T03:37:19.545Z,18.01
2022-09-03T03:38:19.521Z,18.07
2022-09-03T03:39:19.508Z,18.10
2022-09-03T03:40:19.430Z,18.23
2022-09-03T03:41:19.408Z,18.17
2022-09-03T03:42:19.356Z,18.11
2022-09-03T03:43:19.318Z,18.11
2022-09-03T03:44:19.279Z,18.21
2022-09-03T03:45:19.246Z,18.11
2022-09-03T03:46:19.257Z,18.04
2022-09-03T03:47:27.928Z,18.01
2022-09-03T03:48:19.161Z,18.07
2022-09-03T03:49:19.101Z,17.95
2022-09-03T03:50:19.054Z,18.01
2022-09-03T03:51:19.019Z,17.89
2022-09-03T03:52:18.987Z,17.91
2022-09-03T03:53:18.942Z,17.84
2022-09-03T03:54:18.898Z,17.81
2022-09-03T03:55:18.876Z,17.89
2022-09-03T03:56:18.823Z,17.83
2022-09-03T03:57:18.788Z,17.92
2022-09-03T03:58:18.756Z,17.95
2022-09-03T03:59:18.725Z,18.05
2022-09-03T04:00:18.666Z,18.09
2022-09-03T04:01:18.681Z,18.11
2022-09-03T04:02:18.641Z,18.07
2022-09-03T04:03:18.557Z,17.89
2022-09-03T04:04:18.529Z,18.09
2022-09-03T04:05:18.506Z,17.92
2022-09-03T04:06:18.442Z,17.92
2022-09-03T04:07:18.403Z,17.95
2022-09-03T04:08:18.369Z,17.98
2022-09-03T04:09:18.329Z,17.94
2022-09-03T04:10:18.305Z,17.94
2022-09-03T04:11:18.254Z,17.94
2022-09-03T04:12:18.220Z,17.94
2022-09-03T04:13:18.181Z,17.94
2022-09-03T04:14:18.142Z,18.02
2022-09-03T04:15:18.846Z,17.86
2022-09-03T04:16:18.131Z,17.91
2022-09-03T04:17:20.990Z,17.86
2022-09-03T04:18:17.990Z,17.80
2022-09-03T04:19:17.953Z,17.73
2022-09-03T04:20:17.916Z,17.68
2022-09-03T04:21:17.876Z,17.58
2022-09-03T04:22:17.848Z,17.60
2022-09-03T04:23:17.798Z,17.62
2022-09-03T04:24:17.758Z,17.47
2022-09-03T04:25:17.722Z,17.49
2022-09-03T04:26:17.684Z,17.65
2022-09-03T04:27:17.650Z,17.58
2022-09-03T04:28:17.618Z,17.62
2022-09-03T04:29:17.571Z,17.60
2022-09-03T04:30:17.533Z,17.62
2022-09-03T04:31:17.546Z,17.53
2022-09-03T04:32:17.473Z,17.49
2022-09-03T04:33:17.417Z,17.46
2022-09-03T04:34:17.383Z,17.58
2022-09-03T04:35:17.346Z,17.51
2022-09-03T04:36:17.306Z,17.60
2022-09-03T04:37:17.270Z,17.71
2022-09-03T04:38:17.240Z,17.60
2022-09-03T04:39:17.235Z,17.54
2022-09-03T04:40:17.150Z,17.62
2022-09-03T04:41:17.114Z,17.55
2022-09-03T04:42:17.076Z,17.54
2022-09-03T04:43:17.039Z,17.55
2022-09-03T04:44:17.008Z,17.53
2022-09-03T04:45:16.961Z,17.54
2022-09-03T04:46:18.438Z,17.49
2022-09-03T04:47:16.886Z,17.40
2022-09-03T04:48:16.849Z,17.43
2022-09-03T04:49:16.810Z,17.45
2022-09-03T04:50:16.781Z,17.43
2022-09-03T04:51:16.734Z,17.35
2022-09-03T04:52:16.690Z,17.33
2022-09-03T04:53:16.658Z,17.39
2022-09-03T04:54:16.619Z,17.35
2022-09-03T04:55:16.581Z,17.35
2022-09-03T04:56:16.586Z,17.42
2022-09-03T04:57:16.507Z,17.40
2022-09-03T04:58:16.569Z,17.45
2022-09-03T04:59:16.431Z,17.49
2022-09-03T05:00:16.392Z,17.51
2022-09-03T05:01:16.386Z,17.45
2022-09-03T05:02:16.361Z,17.47
2022-09-03T05:03:16.278Z,17.47
2022-09-03T05:04:16.238Z,17.55
2022-09-03T05:05:16.200Z,17.57
2022-09-03T05:06:16.163Z,17.60
2022-09-03T05:07:16.128Z,17.51
2022-09-03T05:08:16.201Z,17.51
2022-09-03T05:09:16.050Z,17.45
2022-09-03T05:10:16.012Z,17.63
2022-09-03T05:11:15.974Z,17.55
2022-09-03T05:12:15.948Z,17.60
2022-09-03T05:13:15.897Z,17.60
2022-09-03T05:14:15.877Z,17.77
2022-09-03T05:15:15.833Z,17.68
2022-09-03T05:16:15.870Z,17.65
2022-09-03T05:17:15.762Z,17.70
2022-09-03T05:18:15.765Z,17.62
2022-09-03T05:19:15.669Z,17.71
2022-09-03T05:20:15.632Z,17.68
2022-09-03T05:21:15.596Z,17.70
2022-09-03T05:22:15.568Z,17.76
2022-09-03T05:23:15.517Z,17.80
2022-09-03T05:24:15.479Z,17.73
2022-09-03T05:25:15.460Z,17.79
2022-09-03T05:26:15.402Z,17.76
2022-09-03T05:27:15.366Z,17.77
2022-09-03T05:28:15.417Z,17.86
2022-09-03T05:29:15.294Z,17.89
2022-09-03T05:30:15.250Z,17.83
2022-09-03T05:31:15.230Z,17.92
2022-09-03T05:32:15.176Z,17.86
2022-09-03T05:33:15.147Z,17.84
2022-09-03T05:34:16.516Z,17.95
2022-09-03T05:35:15.064Z,17.94
2022-09-03T05:36:15.025Z,17.87
2022-09-03T05:37:14.986Z,17.86
2022-09-03T05:38:14.946Z,17.92
2022-09-03T05:39:14.922Z,18.05
2022-09-03T05:40:14.873Z,18.05
2022-09-03T05:41:14.836Z,18.07
2022-09-03T05:42:14.796Z,18.05
2022-09-03T05:43:14.769Z,18.07
2022-09-03T05:44:14.720Z,18.14
2022-09-03T05:45:14.693Z,18.19
2022-09-03T05:46:14.703Z,18.20
2022-09-03T05:47:14.609Z,18.21
2022-09-03T05:48:14.569Z,18.23
2022-09-03T05:49:14.533Z,18.28
2022-09-03T05:50:14.506Z,18.28
2022-09-03T05:51:14.470Z,18.51
2022-09-03T05:52:14.419Z,19.20
2022-09-03T05:53:14.379Z,20.05
2022-09-03T05:54:14.347Z,21.05
2022-09-03T05:55:14.306Z,22.01
2022-09-03T05:56:14.264Z,22.33
2022-09-03T05:57:14.263Z,22.72
2022-09-03T05:58:14.196Z,23.29
2022-09-03T05:59:14.206Z,23.87
2022-09-03T06:00:14.118Z,24.31
2022-09-03T06:01:14.086Z,24.05
2022-09-03T06:02:14.187Z,24.41
2022-09-03T06:03:14.171Z,24.79
2022-09-03T06:04:13.972Z,24.99
2022-09-03T06:05:13.940Z,25.35
2022-09-03T06:06:13.914Z,25.56
2022-09-03T06:07:13.875Z,26.03
2022-09-03T06:08:13.832Z,25.93
2022-09-03T06:09:13.809Z,25.72
2022-09-03T06:10:13.754Z,25.46
2022-09-03T06:11:13.720Z,25.41
2022-09-03T06:12:13.682Z,25.07
2022-09-03T06:13:13.645Z,24.70
2022-09-03T06:14:13.613Z,25.09
2022-09-03T06:15:13.587Z,25.19
2022-09-03T06:16:13.583Z,25.17
2022-09-03T06:17:13.514Z,25.79
2022-09-03T06:18:13.474Z,26.38
2022-09-03T06:19:13.437Z,27.06
2022-09-03T06:20:13.403Z,27.76
2022-09-03T06:21:13.386Z,27.72
2022-09-03T06:22:13.331Z,28.06
2022-09-03T06:23:13.296Z,28.23
2022-09-03T06:24:13.260Z,28.43
2022-09-03T06:25:13.230Z,28.30
2022-09-03T06:26:13.192Z,28.28
2022-09-03T06:27:13.171Z,27.49
2022-09-03T06:28:13.123Z,27.30
2022-09-03T06:29:13.097Z,27.96
2022-09-03T06:30:13.052Z,28.48
2022-09-03T06:31:13.128Z,28.85
2022-09-03T06:32:12.988Z,29.02
2022-09-03T06:33:12.966Z,29.67
2022-09-03T06:34:12.919Z,29.97
2022-09-03T06:35:12.887Z,29.45
2022-09-03T06:36:12.852Z,29.26
2022-09-03T06:37:12.822Z,29.37
2022-09-03T06:38:12.783Z,29.33
2022-09-03T06:39:12.763Z,28.51
2022-09-03T06:40:12.716Z,28.15
2022-09-03T06:41:12.682Z,27.99
2022-09-03T06:42:12.649Z,28.09
2022-09-03T06:43:12.615Z,28.45
2022-09-03T06:44:12.584Z,28.88
2022-09-03T06:45:12.560Z,29.26
2022-09-03T06:46:12.618Z,29.47
2022-09-03T06:47:12.480Z,29.79
2022-09-03T06:48:12.449Z,29.86
2022-09-03T06:49:12.416Z,29.60
2022-09-03T06:50:12.386Z,29.29
2022-09-03T06:51:12.357Z,29.26
2022-09-03T06:52:12.327Z,29.17
2022-09-03T06:53:12.284Z,28.62
2022-09-03T06:54:12.245Z,28.58
2022-09-03T06:55:12.212Z,29.03
2022-09-03T06:56:12.180Z,29.07
2022-09-03T06:57:12.145Z,28.54
2022-09-03T06:58:12.136Z,28.18
2022-09-03T06:59:12.077Z,27.13
2022-09-03T07:00:12.047Z,26.78
2022-09-03T07:01:12.187Z,26.78
2022-09-03T07:02:12.064Z,27.20
2022-09-03T07:03:11.945Z,27.28
2022-09-03T07:04:11.933Z,26.68
2022-09-03T07:05:11.879Z,27.05
2022-09-03T07:06:11.846Z,27.08
2022-09-03T07:07:11.810Z,26.78
2022-09-03T07:08:11.783Z,25.93
2022-09-03T07:09:11.745Z,25.08
2022-09-03T07:10:11.720Z,25.22
2022-09-03T07:11:11.681Z,25.36
2022-09-03T07:12:11.647Z,25.90
2022-09-03T07:13:11.626Z,26.83
2022-09-03T07:14:11.578Z,26.87
2022-09-03T07:15:11.545Z,26.72
2022-09-03T07:16:11.583Z,26.96
2022-09-03T07:17:11.480Z,26.36
2022-09-03T07:18:11.448Z,25.79
2022-09-03T07:19:11.422Z,26.11
2022-09-03T07:20:11.378Z,26.69
2022-09-03T07:21:11.344Z,26.96
2022-09-03T07:22:11.313Z,27.45
2022-09-03T07:23:11.280Z,27.62
2022-09-03T07:24:11.245Z,27.28
2022-09-03T07:25:11.227Z,27.03
2022-09-03T07:26:11.179Z,26.12
2022-09-03T07:27:14.963Z,26.03
2022-09-03T07:28:11.116Z,26.19
2022-09-03T07:29:11.079Z,26.28
2022-09-03T07:30:11.046Z,26.47
2022-09-03T07:31:11.036Z,26.90
2022-09-03T07:32:11.009Z,27.24
2022-09-03T07:33:10.947Z,27.90
2022-09-03T07:34:10.916Z,28.20
2022-09-03T07:35:10.881Z,28.45
2022-09-03T07:36:10.850Z,26.57
2022-09-03T07:37:10.835Z,25.96
2022-09-03T07:38:10.785Z,25.38
2022-09-03T07:39:10.752Z,25.23
2022-09-03T07:40:10.719Z,25.60
2022-09-03T07:41:10.682Z,25.38
2022-09-03T07:42:10.658Z,25.16
2022-09-03T07:43:10.630Z,24.24
2022-09-03T07:44:10.587Z,24.26
2022-09-03T07:45:10.553Z,24.48
2022-09-03T07:46:10.552Z,24.82
2022-09-03T07:47:10.488Z,25.07
2022-09-03T07:48:10.455Z,24.87
2022-09-03T07:49:10.437Z,24.84
2022-09-03T07:50:10.388Z,25.05
2022-09-03T07:51:10.355Z,25.34
2022-09-03T07:52:11.988Z,25.01
2022-09-03T07:53:10.287Z,24.80
2022-09-03T07:54:10.270Z,24.51
2022-09-03T07:55:10.238Z,24.60
2022-09-03T07:56:10.192Z,24.63
2022-09-03T07:57:10.157Z,24.93
2022-09-03T07:58:10.125Z,24.60
2022-09-03T07:59:10.112Z,24.70
2022-09-03T08:00:10.097Z,25.01
2022-09-03T08:01:11.384Z,25.31
2022-09-03T08:02:10.153Z,25.97
2022-09-03T08:03:09.963Z,26.39
2022-09-03T08:04:10.154Z,26.39
2022-09-03T08:05:09.886Z,26.03
2022-09-03T08:06:09.861Z,26.16
2022-09-03T08:07:09.833Z,25.76
2022-09-03T08:08:09.796Z,25.60
2022-09-03T08:09:09.760Z,25.94
2022-09-03T08:10:09.727Z,25.56
2022-09-03T08:11:09.694Z,25.27
2022-09-03T08:12:09.673Z,24.97
2022-09-03T08:13:09.627Z,24.87
2022-09-03T08:14:09.595Z,24.37
2022-09-03T08:15:09.563Z,24.11
2022-09-03T08:16:09.594Z,24.30
2022-09-03T08:17:09.495Z,24.04
2022-09-03T08:18:09.476Z,24.18
2022-09-03T08:19:09.430Z,24.77
2022-09-03T08:20:09.397Z,25.23
2022-09-03T08:21:09.362Z,25.60
2022-09-03T08:22:09.330Z,25.71
2022-09-03T08:23:09.295Z,25.49
2022-09-03T08:24:09.275Z,25.63
2022-09-03T08:25:13.652Z,25.79
2022-09-03T08:26:09.197Z,25.67
2022-09-03T08:27:09.164Z,25.44
2022-09-03T08:28:09.131Z,25.66
2022-09-03T08:29:09.115Z,25.94
2022-09-03T08:30:09.069Z,26.19
2022-09-03T08:31:09.056Z,25.78
2022-09-03T08:32:09.000Z,25.23
2022-09-03T08:33:08.967Z,25.31
2022-09-03T08:34:08.934Z,25.20
2022-09-03T08:35:08.917Z,24.87
2022-09-03T08:36:08.867Z,24.86
2022-09-03T08:37:08.836Z,24.59
2022-09-03T08:38:10.065Z,24.55
2022-09-03T08:39:08.771Z,24.92
2022-09-03T08:40:08.739Z,24.84
2022-09-03T08:41:08.724Z,24.92
2022-09-03T08:42:08.686Z,25.02
2022-09-03T08:43:08.636Z,25.09
2022-09-03T08:44:08.604Z,24.77
2022-09-03T08:45:08.574Z,24.64
2022-09-03T08:46:08.590Z,24.36
2022-09-03T08:47:09.042Z,24.34
2022-09-03T08:48:08.485Z,24.27
2022-09-03T08:49:08.440Z,24.36
2022-09-03T08:50:08.409Z,24.08
2022-09-03T08:51:08.370Z,24.21
2022-09-03T08:52:08.342Z,24.02
2022-09-03T08:53:08.322Z,23.84
2022-09-03T08:54:08.272Z,23.50
2022-09-03T08:55:08.241Z,23.60
2022-09-03T08:56:08.208Z,23.67
2022-09-03T08:57:08.177Z,23.86
2022-09-03T08:58:08.141Z,23.57
2022-09-03T08:59:08.119Z,23.56
2022-09-03T09:00:08.072Z,23.19
2022-09-03T09:01:08.039Z,23.03
2022-09-03T09:02:08.105Z,23.07
2022-09-03T09:03:07.978Z,23.12
2022-09-03T09:04:07.975Z,23.29
2022-09-03T09:05:11.138Z,23.47
2022-09-03T09:06:07.881Z,23.57
2022-09-03T09:07:07.844Z,23.37
2022-09-03T09:08:07.804Z,23.57
2022-09-03T09:09:07.786Z,23.71
2022-09-03T09:10:07.741Z,23.93
2022-09-03T09:11:07.712Z,23.74
2022-09-03T09:12:07.667Z,23.82
2022-09-03T09:13:07.636Z,24.75
2022-09-03T09:14:07.617Z,25.60
2022-09-03T09:15:07.579Z,26.35
2022-09-03T09:16:07.573Z,27.15
2022-09-03T09:17:07.499Z,27.49
2022-09-03T09:18:07.467Z,27.30
2022-09-03T09:19:07.448Z,27.46
2022-09-03T09:20:07.403Z,27.88
2022-09-03T09:21:07.380Z,27.61
2022-09-03T09:22:07.335Z,27.72
2022-09-03T09:23:07.303Z,27.78
2022-09-03T09:24:07.270Z,27.42
2022-09-03T09:25:07.236Z,27.38
2022-09-03T09:26:07.208Z,27.21
2022-09-03T09:27:07.215Z,27.34
2022-09-03T09:28:07.142Z,27.83
2022-09-03T09:29:09.493Z,27.71
2022-09-03T09:30:07.076Z,27.42
2022-09-03T09:31:07.097Z,27.39
2022-09-03T09:32:07.016Z,27.66
2022-09-03T09:33:07.300Z,28.11
2022-09-03T09:34:06.982Z,27.63
2022-09-03T09:35:06.919Z,27.16
2022-09-03T09:36:07.174Z,26.38
2022-09-03T09:37:06.926Z,25.69
2022-09-03T09:38:06.836Z,25.53
2022-09-03T09:39:06.793Z,25.42
2022-09-03T09:40:06.761Z,25.02
2022-09-03T09:41:06.730Z,25.14
2022-09-03T09:42:06.696Z,25.04
2022-09-03T09:43:06.679Z,24.98
2022-09-03T09:44:06.635Z,25.12
2022-09-03T09:45:06.601Z,25.26
2022-09-03T09:46:07.527Z,25.31
2022-09-03T09:47:06.538Z,25.04
2022-09-03T09:48:16.181Z,24.67
2022-09-03T09:49:06.483Z,25.22
2022-09-03T09:50:06.441Z,25.48
2022-09-03T09:51:06.407Z,25.17
2022-09-03T09:52:06.373Z,24.74
2022-09-03T09:53:06.340Z,24.55
2022-09-03T09:54:06.343Z,24.75
2022-09-03T09:55:06.275Z,24.68
2022-09-03T09:56:06.245Z,24.33
2022-09-03T09:57:06.210Z,24.48
2022-09-03T09:58:07.436Z,24.53
2022-09-03T09:59:06.145Z,24.56
2022-09-03T10:00:06.128Z,24.56
2022-09-03T10:01:06.080Z,24.67
2022-09-03T10:02:06.047Z,24.51
2022-09-03T10:03:06.046Z,24.52
2022-09-03T10:04:05.982Z,24.60
2022-09-03T10:05:05.948Z,24.53
2022-09-03T10:06:05.924Z,24.37
2022-09-03T10:07:05.881Z,24.34
2022-09-03T10:08:05.851Z,24.39
2022-09-03T10:09:05.814Z,24.31
2022-09-03T10:10:05.782Z,24.06
2022-09-03T10:11:05.748Z,24.21
2022-09-03T10:12:05.728Z,24.64
2022-09-03T10:13:05.682Z,24.59
2022-09-03T10:14:05.649Z,24.75
2022-09-03T10:15:05.616Z,24.64
2022-09-03T10:16:05.624Z,24.82
2022-09-03T10:17:05.547Z,25.02
2022-09-03T10:18:05.527Z,25.02
2022-09-03T10:19:05.481Z,25.23
2022-09-03T10:20:05.556Z,25.09
2022-09-03T10:21:05.412Z,24.56
2022-09-03T10:22:05.382Z,24.36
2022-09-03T10:23:05.351Z,24.44
2022-09-03T10:24:07.203Z,24.39
2022-09-03T10:25:05.282Z,24.48
2022-09-03T10:26:05.254Z,24.34
2022-09-03T10:27:05.247Z,24.09
2022-09-03T10:28:05.186Z,24.21
2022-09-03T10:29:05.149Z,24.21
2022-09-03T10:30:05.134Z,24.14
2022-09-03T10:31:05.138Z,24.11
2022-09-03T10:32:05.048Z,23.97
2022-09-03T10:33:05.015Z,23.90
2022-09-03T10:34:04.982Z,23.96
2022-09-03T10:35:04.950Z,24.00
2022-09-03T10:36:04.927Z,23.99
2022-09-03T10:37:04.882Z,23.69
2022-09-03T10:38:04.850Z,23.69
2022-09-03T10:39:04.815Z,23.71
2022-09-03T10:40:04.849Z,23.62
2022-09-03T10:41:04.745Z,23.68
2022-09-03T10:42:04.727Z,23.72
2022-09-03T10:43:04.680Z,23.67
2022-09-03T10:44:04.647Z,23.53
2022-09-03T10:45:04.612Z,23.59
2022-09-03T10:46:04.630Z,23.49
2022-09-03T10:47:04.543Z,23.50
2022-09-03T10:48:04.521Z,23.39
2022-09-03T10:49:04.477Z,23.23
2022-09-03T10:50:04.444Z,23.26
2022-09-03T10:51:04.408Z,23.39
2022-09-03T10:52:04.373Z,23.34
2022-09-03T10:53:04.340Z,23.37
2022-09-03T10:54:04.317Z,23.32
2022-09-03T10:55:04.273Z,23.07
2022-09-03T10:56:04.237Z,23.19
2022-09-03T10:57:04.205Z,23.06
2022-09-03T10:58:04.171Z,22.91
2022-09-03T10:59:04.137Z,22.91
2022-09-03T11:00:04.137Z,23.16
2022-09-03T11:01:04.101Z,23.12
2022-09-03T11:02:04.034Z,23.31
2022-09-03T11:03:04.029Z,23.42
2022-09-03T11:04:03.984Z,23.25
2022-09-03T11:05:03.934Z,23.18
2022-09-03T11:06:03.935Z,23.15
2022-09-03T11:07:03.865Z,22.94
2022-09-03T11:08:03.828Z,22.91
2022-09-03T11:09:06.657Z,23.12
2022-09-03T11:10:03.760Z,23.26
2022-09-03T11:11:03.753Z,23.38
2022-09-03T11:12:03.706Z,23.47
2022-09-03T11:13:03.663Z,23.45
2022-09-03T11:14:03.625Z,23.31
2022-09-03T11:15:03.591Z,23.45
2022-09-03T11:16:03.885Z,23.59
2022-09-03T11:17:03.523Z,23.57
2022-09-03T11:18:03.502Z,23.56
2022-09-03T11:19:03.456Z,23.67
2022-09-03T11:20:03.419Z,23.72
2022-09-03T11:21:03.389Z,23.49
2022-09-03T11:22:03.350Z,23.19
2022-09-03T11:23:03.315Z,23.12
2022-09-03T11:24:03.306Z,23.21
2022-09-03T11:25:03.253Z,23.37
2022-09-03T11:26:03.217Z,23.56
2022-09-03T11:27:03.186Z,23.71
2022-09-03T11:28:03.148Z,23.77
2022-09-03T11:29:03.133Z,23.86
2022-09-03T11:30:03.143Z,23.74
2022-09-03T11:31:03.121Z,23.54
2022-09-03T11:32:03.026Z,23.60
2022-09-03T11:33:02.987Z,23.86
2022-09-03T11:34:02.966Z,23.90
2022-09-03T11:35:02.927Z,23.99
2022-09-03T11:36:02.881Z,24.04
2022-09-03T11:37:02.847Z,24.09
2022-09-03T11:38:02.813Z,24.29
2022-09-03T11:39:02.801Z,24.23
2022-09-03T11:40:02.797Z,24.26
2022-09-03T11:41:02.714Z,24.44
2022-09-03T11:42:02.678Z,24.33
2022-09-03T11:43:02.652Z,24.14
2022-09-03T11:44:04.702Z,24.08
2022-09-03T11:45:02.587Z,24.19
2022-09-03T11:46:02.592Z,24.31
2022-09-03T11:47:02.513Z,24.30
2022-09-03T11:48:02.471Z,24.51
2022-09-03T11:49:02.440Z,24.56
2022-09-03T11:50:02.407Z,24.68
2022-09-03T11:51:02.387Z,24.36
2022-09-03T11:52:02.352Z,24.37
2022-09-03T11:53:02.307Z,24.30
2022-09-03T11:54:02.287Z,24.02
2022-09-03T11:55:02.258Z,24.16
2022-09-03T11:56:02.316Z,24.19
2022-09-03T11:57:02.170Z,24.02
2022-09-03T11:58:02.136Z,23.87
2022-09-03T11:59:02.105Z,23.50
2022-09-03T12:00:02.092Z,23.52
2022-09-03T12:01:02.037Z,23.53
2022-09-03T12:02:02.077Z,23.69
2022-09-03T12:03:02.007Z,23.67
2022-09-03T12:04:01.937Z,23.89
2022-09-03T12:05:01.941Z,24.02
2022-09-03T12:06:01.871Z,24.05
2022-09-03T12:07:01.847Z,24.36
2022-09-03T12:08:06.775Z,24.27
2022-09-03T12:09:01.761Z,24.11
2022-09-03T12:10:02.625Z,23.99
2022-09-03T12:11:01.706Z,24.05
2022-09-03T12:12:01.663Z,23.96
2022-09-03T12:13:01.646Z,24.05
2022-09-03T12:14:01.595Z,24.21
2022-09-03T12:15:01.578Z,24.39
2022-09-03T12:16:01.601Z,24.61
2022-09-03T12:17:01.505Z,24.97
2022-09-03T12:18:01.479Z,25.41
2022-09-03T12:19:01.429Z,25.75
2022-09-03T12:20:01.394Z,26.21
2022-09-03T12:21:01.363Z,26.17
2022-09-03T12:22:01.335Z,26.12
2022-09-03T12:23:01.324Z,25.94
2022-09-03T12:24:01.279Z,25.90
2022-09-03T12:25:01.234Z,26.01
2022-09-03T12:26:01.216Z,25.90
2022-09-03T12:27:01.172Z,25.94
2022-09-03T12:28:01.142Z,26.04
2022-09-03T12:29:01.128Z,25.97
2022-09-03T12:30:01.094Z,26.09
2022-09-03T12:31:01.130Z,25.79
2022-09-03T12:32:01.009Z,25.85
2022-09-03T12:33:00.977Z,25.59
2022-09-03T12:34:00.962Z,25.66
2022-09-03T12:35:00.915Z,25.78
2022-09-03T12:36:01.057Z,25.97
2022-09-03T12:37:00.876Z,26.06
2022-09-03T12:38:05.980Z,26.16
2022-09-03T12:39:11.406Z,26.23
2022-09-03T12:40:05.526Z,26.29
2022-09-03T12:41:30.513Z,26.35
2022-09-03T12:42:00.697Z,26.46
2022-09-03T12:44:00.628Z,26.16
2022-09-03T12:45:00.612Z,25.94
2022-09-03T12:46:17.218Z,25.66
2022-09-03T12:48:00.546Z,25.75
2022-09-03T12:50:00.465Z,26.01
2022-09-03T12:51:47.571Z,26.06
2022-09-03T12:52:05.176Z,26.20
2022-09-03T12:53:00.346Z,26.08
2022-09-03T12:54:00.321Z,26.01
2022-09-03T12:55:00.288Z,25.93
2022-09-03T12:56:00.274Z,25.98
2022-09-03T12:57:00.229Z,26.23